Airport Name : Bologna

Other Name : Bologna

ICAO : LIPE

IATA : BLQ

FAA :

Latitude : 44.535444

Longitude : 11.288667

Country : Italy

Local Date and Time : 30 May 2024 06:20

 

TAF (Terminal Aerodrome Forecast)

TAF LIPE 292300Z 3000/3024 VRB05KT CAVOK TEMPO 3014/3019 4000 TSRA

 

METAR (METeorological Aerodrome Report)

LIPE 300350Z 19005KT CAVOK 16/13 Q1008

LIPE 300320Z 20003KT 160V280 CAVOK 16/12 Q1008

LIPE 300250Z 20006KT CAVOK 16/13 Q1008

LIPE 300220Z 19005KT CAVOK 17/13 Q1008

LIPE 300150Z 19005KT CAVOK 17/13 Q1008

LIPE 300120Z 19006KT CAVOK 17/13 Q1009

LIPE 300050Z 19004KT CAVOK 17/13 Q1009